Terminal Aerodrome Forecast
Issued by NWS

Home | Current Version | Previous Version | Text Only | Print | Product List | Glossary On
Versions: 1 2 3 4 5 6 7 8 9 10 11 12 13 14
000
FTAK31 PAJN 221700
TAFAGY
TAF
PAGY 221722Z 2218/2318 05005KT P6SM SKC
     FM222100 21010KT P6SM SCT100
     FM230000 20015G25KT P6SM SCT080
     FM230500 20008KT P6SM SCT080
     FM231200 VRB05KT P6SM BKN080
      AMD LTD TO CLD VIS AND WIND=

USA.gov is the U.S. government's official web portal to all federal, state and local government web resources and services.